sensor_id;sensor_type;location;lat;lon;timestamp;P1;durP1;ratioP1;P2;durP2;ratioP2
17197;SDS011;8715;51.010;6.812;2023-03-01T00:02:10;655.97;;;628.20;;
17197;SDS011;8715;51.010;6.812;2023-03-01T00:04:35;702.80;;;672.70;;
17197;SDS011;8715;51.010;6.812;2023-03-01T00:07:00;657.25;;;629.67;;
17197;SDS011;8715;51.010;6.812;2023-03-01T00:09:25;645.60;;;618.33;;
17197;SDS011;8715;51.010;6.812;2023-03-01T00:11:51;673.07;;;644.30;;
17197;SDS011;8715;51.010;6.812;2023-03-01T00:14:16;649.73;;;622.40;;
17197;SDS011;8715;51.010;6.812;2023-03-01T00:16:42;702.25;;;672.58;;
17197;SDS011;8715;51.010;6.812;2023-03-01T00:19:12;675.80;;;646.85;;
17197;SDS011;8715;51.010;6.812;2023-03-01T00:21:38;664.30;;;636.15;;
17197;SDS011;8715;51.010;6.812;2023-03-01T00:24:04;658.40;;;630.55;;
17197;SDS011;8715;51.010;6.812;2023-03-01T00:26:29;707.45;;;677.08;;
17197;SDS011;8715;51.010;6.812;2023-03-01T00:28:54;648.90;;;621.13;;
17197;SDS011;8715;51.010;6.812;2023-03-01T00:31:22;650.83;;;623.17;;
17197;SDS011;8715;51.010;6.812;2023-03-01T00:33:47;642.67;;;615.92;;
17197;SDS011;8715;51.010;6.812;2023-03-01T00:36:13;654.65;;;627.15;;
17197;SDS011;8715;51.010;6.812;2023-03-01T00:38:40;651.92;;;624.67;;
17197;SDS011;8715;51.010;6.812;2023-03-01T00:41:09;658.83;;;631.00;;
17197;SDS011;8715;51.010;6.812;2023-03-01T00:43:35;650.92;;;622.75;;
17197;SDS011;8715;51.010;6.812;2023-03-01T00:46:20;656.38;;;628.53;;
17197;SDS011;8715;51.010;6.812;2023-03-01T00:48:46;646.22;;;618.53;;
17197;SDS011;8715;51.010;6.812;2023-03-01T00:53:36;651.77;;;623.83;;
17197;SDS011;8715;51.010;6.812;2023-03-01T00:56:02;642.90;;;615.88;;
17197;SDS011;8715;51.010;6.812;2023-03-01T00:58:28;636.80;;;609.83;;
17197;SDS011;8715;51.010;6.812;2023-03-01T01:00:53;643.93;;;617.10;;
17197;SDS011;8715;51.010;6.812;2023-03-01T01:03:18;625.23;;;598.73;;
17197;SDS011;8715;51.010;6.812;2023-03-01T01:05:43;650.88;;;623.05;;
17197;SDS011;8715;51.010;6.812;2023-03-01T01:08:09;629.37;;;602.27;;
17197;SDS011;8715;51.010;6.812;2023-03-01T01:10:34;632.57;;;605.17;;
17197;SDS011;8715;51.010;6.812;2023-03-01T01:12:59;632.72;;;606.08;;
17197;SDS011;8715;51.010;6.812;2023-03-01T01:15:25;633.03;;;606.20;;
17197;SDS011;8715;51.010;6.812;2023-03-01T01:17:50;626.10;;;599.10;;
17197;SDS011;8715;51.010;6.812;2023-03-01T01:20:15;623.80;;;596.57;;
17197;SDS011;8715;51.010;6.812;2023-03-01T01:22:40;656.63;;;628.07;;
17197;SDS011;8715;51.010;6.812;2023-03-01T01:25:06;658.47;;;630.20;;
17197;SDS011;8715;51.010;6.812;2023-03-01T01:27:31;653.78;;;624.35;;
17197;SDS011;8715;51.010;6.812;2023-03-01T01:29:56;659.37;;;630.03;;
17197;SDS011;8715;51.010;6.812;2023-03-01T01:32:21;696.60;;;665.97;;
17197;SDS011;8715;51.010;6.812;2023-03-01T01:34:46;659.67;;;631.17;;
17197;SDS011;8715;51.010;6.812;2023-03-01T01:37:12;658.93;;;630.40;;
17197;SDS011;8715;51.010;6.812;2023-03-01T01:39:37;652.43;;;623.93;;
17197;SDS011;8715;51.010;6.812;2023-03-01T01:42:02;648.93;;;620.97;;
17197;SDS011;8715;51.010;6.812;2023-03-01T01:44:28;663.80;;;635.37;;
17197;SDS011;8715;51.010;6.812;2023-03-01T01:46:58;644.50;;;616.85;;
17197;SDS011;8715;51.010;6.812;2023-03-01T01:49:29;641.47;;;614.20;;
17197;SDS011;8715;51.010;6.812;2023-03-01T01:51:57;659.67;;;631.45;;
17197;SDS011;8715;51.010;6.812;2023-03-01T01:54:27;642.45;;;614.85;;
17197;SDS011;8715;51.010;6.812;2023-03-01T01:56:55;638.60;;;611.67;;
17197;SDS011;8715;51.010;6.812;2023-03-01T01:59:23;662.58;;;634.55;;
17197;SDS011;8715;51.010;6.812;2023-03-01T02:01:50;635.60;;;608.55;;
17197;SDS011;8715;51.010;6.812;2023-03-01T02:04:15;622.60;;;596.42;;
17197;SDS011;8715;51.010;6.812;2023-03-01T02:06:41;634.83;;;607.70;;
17197;SDS011;8715;51.010;6.812;2023-03-01T02:09:11;613.67;;;587.70;;
17197;SDS011;8715;51.010;6.812;2023-03-01T02:11:37;631.40;;;604.55;;
17197;SDS011;8715;51.010;6.812;2023-03-01T02:14:02;641.03;;;613.90;;
17197;SDS011;8715;51.010;6.812;2023-03-01T02:16:28;615.08;;;589.45;;
17197;SDS011;8715;51.010;6.812;2023-03-01T02:18:53;663.88;;;635.53;;
17197;SDS011;8715;51.010;6.812;2023-03-01T02:23:50;632.95;;;606.08;;
17197;SDS011;8715;51.010;6.812;2023-03-01T02:28:43;637.28;;;610.03;;
17197;SDS011;8715;51.010;6.812;2023-03-01T02:31:10;602.97;;;577.60;;
17197;SDS011;8715;51.010;6.812;2023-03-01T02:33:54;614.10;;;587.05;;
17197;SDS011;8715;51.010;6.812;2023-03-01T02:36:31;630.08;;;603.63;;
17197;SDS011;8715;51.010;6.812;2023-03-01T02:38:57;604.30;;;578.30;;
17197;SDS011;8715;51.010;6.812;2023-03-01T02:41:23;607.58;;;581.88;;
17197;SDS011;8715;51.010;6.812;2023-03-01T02:43:50;651.05;;;622.95;;
17197;SDS011;8715;51.010;6.812;2023-03-01T02:46:20;627.87;;;600.80;;
17197;SDS011;8715;51.010;6.812;2023-03-01T02:48:48;638.00;;;610.92;;
17197;SDS011;8715;51.010;6.812;2023-03-01T02:53:52;631.75;;;604.72;;
17197;SDS011;8715;51.010;6.812;2023-03-01T02:56:18;633.78;;;607.13;;
17197;SDS011;8715;51.010;6.812;2023-03-01T02:58:43;613.93;;;587.90;;
17197;SDS011;8715;51.010;6.812;2023-03-01T03:01:16;634.80;;;607.65;;
17197;SDS011;8715;51.010;6.812;2023-03-01T03:03:41;661.70;;;634.23;;
17197;SDS011;8715;51.010;6.812;2023-03-01T03:06:07;649.30;;;620.95;;
17197;SDS011;8715;51.010;6.812;2023-03-01T03:08:32;607.17;;;581.43;;
17197;SDS011;8715;51.010;6.812;2023-03-01T03:10:57;616.40;;;589.93;;
17197;SDS011;8715;51.010;6.812;2023-03-01T03:13:22;606.27;;;580.43;;
17197;SDS011;8715;51.010;6.812;2023-03-01T03:15:53;639.75;;;612.13;;
17197;SDS011;8715;51.010;6.812;2023-03-01T03:18:18;614.10;;;588.07;;
17197;SDS011;8715;51.010;6.812;2023-03-01T03:20:44;614.50;;;588.50;;
17197;SDS011;8715;51.010;6.812;2023-03-01T03:23:10;620.03;;;593.33;;
17197;SDS011;8715;51.010;6.812;2023-03-01T03:25:35;580.35;;;555.97;;
17197;SDS011;8715;51.010;6.812;2023-03-01T03:28:02;586.38;;;561.70;;
17197;SDS011;8715;51.010;6.812;2023-03-01T03:30:34;630.88;;;603.88;;
17197;SDS011;8715;51.010;6.812;2023-03-01T03:32:59;618.92;;;592.60;;
17197;SDS011;8715;51.010;6.812;2023-03-01T03:35:28;627.93;;;601.03;;
17197;SDS011;8715;51.010;6.812;2023-03-01T03:37:58;607.65;;;581.28;;
17197;SDS011;8715;51.010;6.812;2023-03-01T03:40:27;609.88;;;584.15;;
17197;SDS011;8715;51.010;6.812;2023-03-01T03:42:52;618.15;;;591.83;;
17197;SDS011;8715;51.010;6.812;2023-03-01T03:45:18;611.67;;;585.40;;
17197;SDS011;8715;51.010;6.812;2023-03-01T03:47:43;628.42;;;601.70;;
17197;SDS011;8715;51.010;6.812;2023-03-01T03:50:13;613.40;;;586.88;;
17197;SDS011;8715;51.010;6.812;2023-03-01T03:52:38;609.88;;;583.50;;
17197;SDS011;8715;51.010;6.812;2023-03-01T03:55:04;613.83;;;587.60;;
17197;SDS011;8715;51.010;6.812;2023-03-01T03:59:59;530.40;;;507.27;;
17197;SDS011;8715;51.010;6.812;2023-03-01T04:02:24;550.73;;;527.43;;
17197;SDS011;8715;51.010;6.812;2023-03-01T04:04:50;545.65;;;522.90;;
17197;SDS011;8715;51.010;6.812;2023-03-01T04:07:15;580.30;;;555.10;;
17197;SDS011;8715;51.010;6.812;2023-03-01T04:09:41;580.78;;;555.88;;
17197;SDS011;8715;51.010;6.812;2023-03-01T04:12:07;573.28;;;548.65;;
17197;SDS011;8715;51.010;6.812;2023-03-01T04:14:32;572.43;;;547.83;;
17197;SDS011;8715;51.010;6.812;2023-03-01T04:16:58;580.58;;;554.97;;
17197;SDS011;8715;51.010;6.812;2023-03-01T04:19:23;576.73;;;552.57;;
17197;SDS011;8715;51.010;6.812;2023-03-01T04:21:48;549.07;;;525.87;;
17197;SDS011;8715;51.010;6.812;2023-03-01T04:24:13;558.07;;;534.13;;
17197;SDS011;8715;51.010;6.812;2023-03-01T04:26:39;568.97;;;544.47;;
17197;SDS011;8715;51.010;6.812;2023-03-01T04:29:04;577.30;;;552.70;;
17197;SDS011;8715;51.010;6.812;2023-03-01T04:31:29;568.80;;;544.57;;
17197;SDS011;8715;51.010;6.812;2023-03-01T04:33:55;578.07;;;553.57;;
17197;SDS011;8715;51.010;6.812;2023-03-01T04:36:22;545.33;;;522.88;;
17197;SDS011;8715;51.010;6.812;2023-03-01T04:38:47;539.30;;;516.50;;
17197;SDS011;8715;51.010;6.812;2023-03-01T04:41:12;561.83;;;537.77;;
17197;SDS011;8715;51.010;6.812;2023-03-01T04:43:38;562.60;;;538.75;;
17197;SDS011;8715;51.010;6.812;2023-03-01T04:46:04;553.40;;;530.03;;
17197;SDS011;8715;51.010;6.812;2023-03-01T04:48:31;563.45;;;539.53;;
17197;SDS011;8715;51.010;6.812;2023-03-01T04:50:57;571.00;;;546.03;;
17197;SDS011;8715;51.010;6.812;2023-03-01T04:53:22;569.58;;;545.00;;
17197;SDS011;8715;51.010;6.812;2023-03-01T04:55:48;567.50;;;543.10;;
17197;SDS011;8715;51.010;6.812;2023-03-01T04:58:13;575.90;;;551.27;;
17197;SDS011;8715;51.010;6.812;2023-03-01T05:00:38;583.27;;;557.87;;
17197;SDS011;8715;51.010;6.812;2023-03-01T05:03:03;579.07;;;554.37;;
17197;SDS011;8715;51.010;6.812;2023-03-01T05:05:30;607.03;;;581.47;;
17197;SDS011;8715;51.010;6.812;2023-03-01T05:07:57;568.80;;;544.30;;
17197;SDS011;8715;51.010;6.812;2023-03-01T05:10:23;586.47;;;560.97;;
17197;SDS011;8715;51.010;6.812;2023-03-01T05:12:48;563.97;;;539.88;;
17197;SDS011;8715;51.010;6.812;2023-03-01T05:15:13;570.80;;;546.83;;
17197;SDS011;8715;51.010;6.812;2023-03-01T05:17:39;585.38;;;560.20;;
17197;SDS011;8715;51.010;6.812;2023-03-01T05:20:04;548.80;;;525.00;;
17197;SDS011;8715;51.010;6.812;2023-03-01T05:22:33;542.08;;;518.60;;
17197;SDS011;8715;51.010;6.812;2023-03-01T05:24:59;536.33;;;513.20;;
17197;SDS011;8715;51.010;6.812;2023-03-01T05:27:24;520.23;;;496.90;;
17197;SDS011;8715;51.010;6.812;2023-03-01T05:29:49;541.57;;;518.77;;
17197;SDS011;8715;51.010;6.812;2023-03-01T05:32:14;529.87;;;507.40;;
17197;SDS011;8715;51.010;6.812;2023-03-01T05:34:40;502.83;;;480.90;;
17197;SDS011;8715;51.010;6.812;2023-03-01T05:37:05;529.70;;;506.88;;
17197;SDS011;8715;51.010;6.812;2023-03-01T05:39:32;525.65;;;502.90;;
17197;SDS011;8715;51.010;6.812;2023-03-01T05:41:58;526.87;;;504.47;;
17197;SDS011;8715;51.010;6.812;2023-03-01T05:44:24;498.02;;;476.77;;
17197;SDS011;8715;51.010;6.812;2023-03-01T05:46:49;513.43;;;491.63;;
17197;SDS011;8715;51.010;6.812;2023-03-01T05:49:14;531.05;;;508.67;;
17197;SDS011;8715;51.010;6.812;2023-03-01T05:51:40;508.00;;;486.08;;
17197;SDS011;8715;51.010;6.812;2023-03-01T05:54:06;523.58;;;500.27;;
17197;SDS011;8715;51.010;6.812;2023-03-01T05:56:32;520.05;;;497.38;;
17197;SDS011;8715;51.010;6.812;2023-03-01T05:58:57;531.50;;;507.75;;
17197;SDS011;8715;51.010;6.812;2023-03-01T06:01:22;518.00;;;495.43;;
17197;SDS011;8715;51.010;6.812;2023-03-01T06:03:48;508.43;;;486.50;;
17197;SDS011;8715;51.010;6.812;2023-03-01T06:06:13;508.13;;;486.13;;
17197;SDS011;8715;51.010;6.812;2023-03-01T06:08:38;489.33;;;468.10;;
17197;SDS011;8715;51.010;6.812;2023-03-01T06:11:03;519.13;;;496.97;;
17197;SDS011;8715;51.010;6.812;2023-03-01T06:13:30;516.97;;;495.10;;
17197;SDS011;8715;51.010;6.812;2023-03-01T06:15:55;517.15;;;494.67;;
17197;SDS011;8715;51.010;6.812;2023-03-01T06:18:20;516.33;;;493.60;;
17197;SDS011;8715;51.010;6.812;2023-03-01T06:20:51;499.90;;;478.33;;
17197;SDS011;8715;51.010;6.812;2023-03-01T06:23:18;507.92;;;486.05;;
17197;SDS011;8715;51.010;6.812;2023-03-01T06:25:43;490.80;;;470.15;;
17197;SDS011;8715;51.010;6.812;2023-03-01T06:28:08;499.87;;;477.67;;
17197;SDS011;8715;51.010;6.812;2023-03-01T06:30:33;510.17;;;488.10;;
17197;SDS011;8715;51.010;6.812;2023-03-01T06:32:58;492.57;;;471.27;;
17197;SDS011;8715;51.010;6.812;2023-03-01T06:35:26;527.53;;;504.65;;
17197;SDS011;8715;51.010;6.812;2023-03-01T06:37:54;526.97;;;503.98;;
17197;SDS011;8715;51.010;6.812;2023-03-01T06:40:20;523.63;;;501.50;;
17197;SDS011;8715;51.010;6.812;2023-03-01T06:42:47;534.60;;;511.58;;
17197;SDS011;8715;51.010;6.812;2023-03-01T06:45:14;538.10;;;514.63;;
17197;SDS011;8715;51.010;6.812;2023-03-01T06:47:39;517.47;;;495.10;;
17197;SDS011;8715;51.010;6.812;2023-03-01T06:50:04;534.97;;;511.63;;
17197;SDS011;8715;51.010;6.812;2023-03-01T06:52:30;534.42;;;510.83;;
17197;SDS011;8715;51.010;6.812;2023-03-01T06:54:55;552.28;;;528.30;;
17197;SDS011;8715;51.010;6.812;2023-03-01T06:57:21;552.60;;;527.87;;
17197;SDS011;8715;51.010;6.812;2023-03-01T06:59:46;555.72;;;531.47;;
17197;SDS011;8715;51.010;6.812;2023-03-01T07:02:12;560.00;;;535.95;;
17197;SDS011;8715;51.010;6.812;2023-03-01T07:04:38;557.72;;;533.40;;
17197;SDS011;8715;51.010;6.812;2023-03-01T07:07:03;609.53;;;583.65;;
17197;SDS011;8715;51.010;6.812;2023-03-01T07:09:28;543.30;;;520.03;;
17197;SDS011;8715;51.010;6.812;2023-03-01T07:11:53;612.50;;;585.67;;
17197;SDS011;8715;51.010;6.812;2023-03-01T07:14:19;543.60;;;520.10;;
17197;SDS011;8715;51.010;6.812;2023-03-01T07:16:44;555.55;;;531.25;;
17197;SDS011;8715;51.010;6.812;2023-03-01T07:19:10;626.70;;;600.87;;
17197;SDS011;8715;51.010;6.812;2023-03-01T07:21:35;537.67;;;514.63;;
17197;SDS011;8715;51.010;6.812;2023-03-01T07:24:04;582.00;;;556.80;;
17197;SDS011;8715;51.010;6.812;2023-03-01T07:26:29;584.90;;;559.95;;
17197;SDS011;8715;51.010;6.812;2023-03-01T07:28:54;567.90;;;543.45;;
17197;SDS011;8715;51.010;6.812;2023-03-01T07:31:19;599.37;;;573.83;;
17197;SDS011;8715;51.010;6.812;2023-03-01T07:33:45;575.30;;;551.17;;
17197;SDS011;8715;51.010;6.812;2023-03-01T07:36:10;607.97;;;581.60;;
17197;SDS011;8715;51.010;6.812;2023-03-01T07:38:35;599.57;;;573.67;;
17197;SDS011;8715;51.010;6.812;2023-03-01T07:41:01;613.60;;;587.13;;
17197;SDS011;8715;51.010;6.812;2023-03-01T07:43:28;611.90;;;585.90;;
17197;SDS011;8715;51.010;6.812;2023-03-01T07:45:53;632.17;;;605.33;;
17197;SDS011;8715;51.010;6.812;2023-03-01T07:48:18;639.10;;;610.67;;
17197;SDS011;8715;51.010;6.812;2023-03-01T07:50:44;636.20;;;609.27;;
17197;SDS011;8715;51.010;6.812;2023-03-01T07:53:09;638.25;;;611.20;;
17197;SDS011;8715;51.010;6.812;2023-03-01T07:55:35;654.50;;;626.45;;
17197;SDS011;8715;51.010;6.812;2023-03-01T07:58:00;666.33;;;637.45;;
17197;SDS011;8715;51.010;6.812;2023-03-01T08:00:25;653.47;;;625.23;;
17197;SDS011;8715;51.010;6.812;2023-03-01T08:02:50;656.47;;;628.17;;
17197;SDS011;8715;51.010;6.812;2023-03-01T08:05:16;666.33;;;636.63;;
17197;SDS011;8715;51.010;6.812;2023-03-01T08:07:41;673.60;;;643.72;;
17197;SDS011;8715;51.010;6.812;2023-03-01T08:10:06;666.83;;;637.80;;
17197;SDS011;8715;51.010;6.812;2023-03-01T08:12:32;688.90;;;658.28;;
17197;SDS011;8715;51.010;6.812;2023-03-01T08:14:57;679.40;;;649.67;;
17197;SDS011;8715;51.010;6.812;2023-03-01T08:17:22;684.53;;;653.23;;
17197;SDS011;8715;51.010;6.812;2023-03-01T08:19:47;670.10;;;640.70;;
17197;SDS011;8715;51.010;6.812;2023-03-01T08:22:13;686.27;;;655.93;;
17197;SDS011;8715;51.010;6.812;2023-03-01T08:24:38;673.67;;;644.47;;
17197;SDS011;8715;51.010;6.812;2023-03-01T08:27:03;686.60;;;656.43;;
17197;SDS011;8715;51.010;6.812;2023-03-01T08:29:32;675.75;;;646.70;;
17197;SDS011;8715;51.010;6.812;2023-03-01T08:31:57;702.90;;;671.63;;
17197;SDS011;8715;51.010;6.812;2023-03-01T08:34:22;706.28;;;675.08;;
17197;SDS011;8715;51.010;6.812;2023-03-01T08:36:48;696.77;;;665.90;;
17197;SDS011;8715;51.010;6.812;2023-03-01T08:39:15;722.70;;;690.42;;
17197;SDS011;8715;51.010;6.812;2023-03-01T08:41:41;706.75;;;674.58;;
17197;SDS011;8715;51.010;6.812;2023-03-01T08:44:06;709.40;;;677.13;;
17197;SDS011;8715;51.010;6.812;2023-03-01T08:46:34;716.35;;;684.20;;
17197;SDS011;8715;51.010;6.812;2023-03-01T08:48:59;708.95;;;677.05;;
17197;SDS011;8715;51.010;6.812;2023-03-01T08:51:25;724.00;;;691.63;;
17197;SDS011;8715;51.010;6.812;2023-03-01T08:53:50;755.55;;;721.03;;
17197;SDS011;8715;51.010;6.812;2023-03-01T08:56:16;715.13;;;682.77;;
17197;SDS011;8715;51.010;6.812;2023-03-01T08:58:45;730.35;;;696.83;;
17197;SDS011;8715;51.010;6.812;2023-03-01T09:01:11;727.33;;;694.10;;
17197;SDS011;8715;51.010;6.812;2023-03-01T09:03:36;720.90;;;687.65;;
17197;SDS011;8715;51.010;6.812;2023-03-01T09:06:02;723.73;;;690.87;;
17197;SDS011;8715;51.010;6.812;2023-03-01T09:08:28;730.67;;;696.28;;
17197;SDS011;8715;51.010;6.812;2023-03-01T09:10:53;736.28;;;702.50;;
17197;SDS011;8715;51.010;6.812;2023-03-01T09:13:19;734.80;;;701.23;;
17197;SDS011;8715;51.010;6.812;2023-03-01T09:15:44;734.87;;;701.20;;
17197;SDS011;8715;51.010;6.812;2023-03-01T09:18:09;736.73;;;702.00;;
17197;SDS011;8715;51.010;6.812;2023-03-01T09:20:34;738.77;;;704.80;;
17197;SDS011;8715;51.010;6.812;2023-03-01T09:22:59;747.20;;;712.07;;
17197;SDS011;8715;51.010;6.812;2023-03-01T09:25:25;740.50;;;706.77;;
17197;SDS011;8715;51.010;6.812;2023-03-01T09:27:53;746.93;;;711.53;;
17197;SDS011;8715;51.010;6.812;2023-03-01T09:30:19;748.30;;;713.15;;
17197;SDS011;8715;51.010;6.812;2023-03-01T09:32:44;753.05;;;717.72;;
17197;SDS011;8715;51.010;6.812;2023-03-01T09:35:10;760.40;;;723.80;;
17197;SDS011;8715;51.010;6.812;2023-03-01T09:37:35;761.85;;;725.00;;
17197;SDS011;8715;51.010;6.812;2023-03-01T09:40:01;759.30;;;723.42;;
17197;SDS011;8715;51.010;6.812;2023-03-01T09:42:27;761.28;;;725.00;;
17197;SDS011;8715;51.010;6.812;2023-03-01T09:45:00;751.85;;;716.45;;
17197;SDS011;8715;51.010;6.812;2023-03-01T09:47:30;766.78;;;730.08;;
17197;SDS011;8715;51.010;6.812;2023-03-01T09:50:16;764.60;;;728.35;;
17197;SDS011;8715;51.010;6.812;2023-03-01T09:55:11;756.93;;;720.67;;
17197;SDS011;8715;51.010;6.812;2023-03-01T10:03:08;751.22;;;715.72;;
17197;SDS011;8715;51.010;6.812;2023-03-01T10:11:12;757.13;;;721.08;;
17197;SDS011;8715;51.010;6.812;2023-03-01T10:13:45;772.10;;;735.08;;
17197;SDS011;8715;51.010;6.812;2023-03-01T10:16:12;774.85;;;736.85;;
17197;SDS011;8715;51.010;6.812;2023-03-01T10:18:38;792.72;;;752.97;;
17197;SDS011;8715;51.010;6.812;2023-03-01T10:23:39;774.67;;;736.28;;
17197;SDS011;8715;51.010;6.812;2023-03-01T10:31:27;780.67;;;742.30;;
17197;SDS011;8715;51.010;6.812;2023-03-01T10:34:02;781.78;;;742.83;;
17197;SDS011;8715;51.010;6.812;2023-03-01T10:36:28;782.70;;;744.05;;
17197;SDS011;8715;51.010;6.812;2023-03-01T10:38:58;781.47;;;742.70;;
17197;SDS011;8715;51.010;6.812;2023-03-01T10:41:25;777.72;;;739.00;;
17197;SDS011;8715;51.010;6.812;2023-03-01T10:43:55;783.95;;;745.03;;
17197;SDS011;8715;51.010;6.812;2023-03-01T10:46:22;780.58;;;742.33;;
17197;SDS011;8715;51.010;6.812;2023-03-01T10:48:58;810.22;;;769.28;;
17197;SDS011;8715;51.010;6.812;2023-03-01T10:53:55;779.00;;;740.92;;
17197;SDS011;8715;51.010;6.812;2023-03-01T10:56:20;774.40;;;736.73;;
17197;SDS011;8715;51.010;6.812;2023-03-01T10:58:59;789.83;;;750.42;;
17197;SDS011;8715;51.010;6.812;2023-03-01T11:01:25;787.10;;;747.78;;
17197;SDS011;8715;51.010;6.812;2023-03-01T11:04:10;794.97;;;754.90;;
17197;SDS011;8715;51.010;6.812;2023-03-01T11:06:36;802.80;;;762.40;;
17197;SDS011;8715;51.010;6.812;2023-03-01T11:11:39;787.47;;;747.38;;
17197;SDS011;8715;51.010;6.812;2023-03-01T11:14:18;781.23;;;742.13;;
17197;SDS011;8715;51.010;6.812;2023-03-01T11:16:44;788.97;;;749.28;;
17197;SDS011;8715;51.010;6.812;2023-03-01T11:24:03;798.58;;;757.88;;
17197;SDS011;8715;51.010;6.812;2023-03-01T11:26:30;791.95;;;751.55;;
17197;SDS011;8715;51.010;6.812;2023-03-01T11:28:58;794.92;;;754.80;;
17197;SDS011;8715;51.010;6.812;2023-03-01T11:31:27;795.70;;;754.65;;
17197;SDS011;8715;51.010;6.812;2023-03-01T11:33:54;794.78;;;754.13;;
17197;SDS011;8715;51.010;6.812;2023-03-01T11:38:48;806.80;;;764.75;;
17197;SDS011;8715;51.010;6.812;2023-03-01T11:41:17;806.73;;;763.83;;
17197;SDS011;8715;51.010;6.812;2023-03-01T11:49:07;802.53;;;760.85;;
17197;SDS011;8715;51.010;6.812;2023-03-01T11:54:34;813.65;;;770.08;;
17197;SDS011;8715;51.010;6.812;2023-03-01T11:57:11;802.78;;;760.03;;
17197;SDS011;8715;51.010;6.812;2023-03-01T12:07:14;819.70;;;776.17;;
17197;SDS011;8715;51.010;6.812;2023-03-01T12:09:45;819.03;;;774.65;;
17197;SDS011;8715;51.010;6.812;2023-03-01T12:12:32;823.80;;;778.35;;
17197;SDS011;8715;51.010;6.812;2023-03-01T12:20:26;834.67;;;788.10;;
17197;SDS011;8715;51.010;6.812;2023-03-01T12:30:25;830.97;;;784.55;;
17197;SDS011;8715;51.010;6.812;2023-03-01T12:42:55;828.22;;;782.78;;
17197;SDS011;8715;51.010;6.812;2023-03-01T12:50:51;834.20;;;787.30;;
17197;SDS011;8715;51.010;6.812;2023-03-01T12:53:24;838.05;;;790.65;;
17197;SDS011;8715;51.010;6.812;2023-03-01T12:55:50;834.63;;;787.72;;
17197;SDS011;8715;51.010;6.812;2023-03-01T13:00:45;843.40;;;795.23;;
17197;SDS011;8715;51.010;6.812;2023-03-01T13:03:19;846.90;;;797.53;;
17197;SDS011;8715;51.010;6.812;2023-03-01T13:08:35;837.83;;;789.67;;
17197;SDS011;8715;51.010;6.812;2023-03-01T13:11:02;838.60;;;789.92;;
17197;SDS011;8715;51.010;6.812;2023-03-01T13:13:28;839.53;;;791.22;;
17197;SDS011;8715;51.010;6.812;2023-03-01T13:15:54;840.42;;;792.10;;
17197;SDS011;8715;51.010;6.812;2023-03-01T13:20:48;839.33;;;791.07;;
17197;SDS011;8715;51.010;6.812;2023-03-01T13:31:01;837.10;;;789.85;;
17197;SDS011;8715;51.010;6.812;2023-03-01T13:35:51;836.10;;;788.67;;
17197;SDS011;8715;51.010;6.812;2023-03-01T13:41:02;838.78;;;791.47;;
17197;SDS011;8715;51.010;6.812;2023-03-01T13:43:31;840.58;;;792.88;;
17197;SDS011;8715;51.010;6.812;2023-03-01T13:48:23;832.15;;;786.05;;
17197;SDS011;8715;51.010;6.812;2023-03-01T13:50:53;835.90;;;788.65;;
17197;SDS011;8715;51.010;6.812;2023-03-01T13:53:21;830.40;;;783.63;;
17197;SDS011;8715;51.010;6.812;2023-03-01T13:55:48;840.55;;;792.63;;
17197;SDS011;8715;51.010;6.812;2023-03-01T13:58:21;837.15;;;789.58;;
17197;SDS011;8715;51.010;6.812;2023-03-01T14:00:47;838.25;;;790.45;;
17197;SDS011;8715;51.010;6.812;2023-03-01T14:03:14;835.58;;;787.90;;
17197;SDS011;8715;51.010;6.812;2023-03-01T14:05:41;842.58;;;794.65;;
17197;SDS011;8715;51.010;6.812;2023-03-01T14:08:24;841.95;;;793.45;;
17197;SDS011;8715;51.010;6.812;2023-03-01T14:11:02;841.80;;;793.72;;
17197;SDS011;8715;51.010;6.812;2023-03-01T14:13:39;833.78;;;786.53;;
17197;SDS011;8715;51.010;6.812;2023-03-01T14:18:39;831.45;;;784.28;;
17197;SDS011;8715;51.010;6.812;2023-03-01T14:21:12;839.80;;;791.50;;
17197;SDS011;8715;51.010;6.812;2023-03-01T14:23:38;846.47;;;797.03;;
17197;SDS011;8715;51.010;6.812;2023-03-01T14:26:07;846.50;;;797.15;;
17197;SDS011;8715;51.010;6.812;2023-03-01T14:28:33;848.80;;;799.88;;
17197;SDS011;8715;51.010;6.812;2023-03-01T14:31:02;843.20;;;794.45;;
17197;SDS011;8715;51.010;6.812;2023-03-01T14:33:28;844.33;;;795.43;;
17197;SDS011;8715;51.010;6.812;2023-03-01T14:36:01;844.13;;;795.50;;
17197;SDS011;8715;51.010;6.812;2023-03-01T14:38:41;846.95;;;798.08;;
17197;SDS011;8715;51.010;6.812;2023-03-01T14:41:14;841.72;;;793.38;;
17197;SDS011;8715;51.010;6.812;2023-03-01T14:43:42;840.08;;;791.63;;
17197;SDS011;8715;51.010;6.812;2023-03-01T14:46:21;844.15;;;795.55;;
17197;SDS011;8715;51.010;6.812;2023-03-01T14:48:49;836.00;;;787.83;;
17197;SDS011;8715;51.010;6.812;2023-03-01T14:51:15;843.28;;;794.83;;
17197;SDS011;8715;51.010;6.812;2023-03-01T14:53:41;838.00;;;790.00;;
17197;SDS011;8715;51.010;6.812;2023-03-01T14:56:12;844.67;;;796.08;;
17197;SDS011;8715;51.010;6.812;2023-03-01T14:58:38;846.58;;;798.08;;
17197;SDS011;8715;51.010;6.812;2023-03-01T15:01:03;841.97;;;793.00;;
17197;SDS011;8715;51.010;6.812;2023-03-01T15:05:57;847.72;;;797.90;;
17197;SDS011;8715;51.010;6.812;2023-03-01T15:08:24;849.08;;;799.33;;
17197;SDS011;8715;51.010;6.812;2023-03-01T15:11:00;846.08;;;796.35;;
17197;SDS011;8715;51.010;6.812;2023-03-01T15:13:28;844.95;;;796.03;;
17197;SDS011;8715;51.010;6.812;2023-03-01T15:16:00;840.28;;;791.47;;
17197;SDS011;8715;51.010;6.812;2023-03-01T15:18:26;841.88;;;792.80;;
17197;SDS011;8715;51.010;6.812;2023-03-01T15:20:52;843.03;;;794.00;;
17197;SDS011;8715;51.010;6.812;2023-03-01T15:23:19;841.70;;;793.23;;
17197;SDS011;8715;51.010;6.812;2023-03-01T15:25:45;842.63;;;793.65;;
17197;SDS011;8715;51.010;6.812;2023-03-01T15:28:12;843.63;;;794.90;;
17197;SDS011;8715;51.010;6.812;2023-03-01T15:30:41;844.22;;;795.65;;
17197;SDS011;8715;51.010;6.812;2023-03-01T15:33:17;843.80;;;794.27;;
17197;SDS011;8715;51.010;6.812;2023-03-01T15:35:44;844.58;;;795.92;;
17197;SDS011;8715;51.010;6.812;2023-03-01T15:40:53;836.33;;;788.42;;
17197;SDS011;8715;51.010;6.812;2023-03-01T15:43:38;841.63;;;792.65;;
17197;SDS011;8715;51.010;6.812;2023-03-01T15:46:03;838.63;;;790.05;;
17197;SDS011;8715;51.010;6.812;2023-03-01T15:48:29;839.90;;;791.05;;
17197;SDS011;8715;51.010;6.812;2023-03-01T15:50:58;841.83;;;793.38;;
17197;SDS011;8715;51.010;6.812;2023-03-01T15:53:23;843.22;;;794.83;;
17197;SDS011;8715;51.010;6.812;2023-03-01T15:55:49;836.95;;;788.75;;
17197;SDS011;8715;51.010;6.812;2023-03-01T16:00:40;835.13;;;787.75;;
17197;SDS011;8715;51.010;6.812;2023-03-01T16:03:06;837.15;;;789.63;;
17197;SDS011;8715;51.010;6.812;2023-03-01T16:05:34;834.53;;;787.35;;
17197;SDS011;8715;51.010;6.812;2023-03-01T16:08:00;833.45;;;785.85;;
17197;SDS011;8715;51.010;6.812;2023-03-01T16:10:25;833.92;;;786.40;;
17197;SDS011;8715;51.010;6.812;2023-03-01T16:12:51;837.30;;;789.92;;